Watertown Municipal, SD

2:09 PM CST on January 23, 2017 (GMT -0600)
Watertown Municipal | | Change Station
Active Advisory: Winter Weather Advisory

Elev 1745 ft 44.91 °N, 97.15 °W | Updated 16 minutes ago

Overcast
Overcast
29 °F
Feels Like 29 °F
N
0
Wind Variable Wind from North

Today
High -- | Low -- °F
--% Chance of Precip.
Yesterday
High -- | Low -- °F
Precip. -- in
Pressure 29.83 in
Visibility 7.0 miles
Clouds Overcast 600 ft
Dew Point 26 °F
Humidity 89%
Rainfall 0.00 in
Snow Depth Not available.
7:57 AM 5:24 PM
Waning Crescent, 16% visible
METAR KATY 231953Z AUTO 00000KT 7SM OVC006 M02/M03 A2977 RMK AO2 SLP102 T10171033
Pressure 29.83 in
Visibility 7.0 miles
Clouds Overcast 600 ft
Dew Point 26 °F
Humidity 89%
Rainfall 0.00 in
Snow Depth Not available.
7:57 AM 5:24 PM
Waning Crescent, 16% visible
METAR KATY 231953Z AUTO 00000KT 7SM OVC006 M02/M03 A2977 RMK AO2 SLP102 T10171033

Get Your Daily Forecast Email!

Thanks for signing up!

Be on the lookout for a verification email in your inbox.

You'll start receiving the daily forecast at 8 AM.

×

10-Day Weather Forecast

Almanac

Astronomy

Jan. 23, 2017 Rise Set
Actual Time
Civil Twilight
Nautical Twilight
Astronomical Twilight
Moon
Length of Visible Light
Length of Day
Tomorrow will be .
, % of the Moon is Illuminated

Today's Extremes

State Highs State Lows

Community

WunderPhotos

Upload Photos

1,962,540 photos uploaded!

WunderBlog® & News

Nearby

Air Quality

  Air Quality AQ Index Pollutant
Not available.

Snow Depth

Station Depth Elevation

Earthquake Activity

City Distance Mag. Time & Date
Minimum magnitude displayed is 2.5.

Coastal Water Temperatures

Place Temperature

Stations

Nearby Weather Stations

Station Location Temp. Windchill Dew Point Humidity Wind Precip. Elev Updated Type
                   

Watches & Warnings

Winter Weather Advisory
Issued: 12:50 PM MST Jan. 23, 2017 – National Weather Service

... Winter Weather Advisory in effect from 3 am CST /2 am MST/
Tuesday to 6 am CST /5 am MST/ Wednesday...

The National Weather Service in Aberdeen has issued a Winter
Weather Advisory for snow... which is in effect from 3 am CST /2
am MST/ Tuesday to 6 am CST /5 am MST/ Wednesday.

* Timing... expect snow to develop around 3 am Tuesday and then
diminish around 6 am Wednesday.

* Precipitation rates... the heaviest snowfall rates will occur
between 6 PM Tuesday and midnight Wednesday.

* Snow accumulations... total snow accumulations of 3 to 6 inches
are expected.

* Winds / visibilities... look for reduced visibilities at times.

* Impacts... plan on difficult driving conditions.

Precautionary/preparedness actions...

A Winter Weather Advisory for snow means periods of snow will
cause primarily travel difficulties. Be prepared for snow covered
roads and limited visibilities... and use caution while driving.
The latest Road conditions for the state you are calling from can
be obtained by calling 5 1 1.


Tdk